createdAt,value
2022-08-31T00:01:39.714Z,22.50
2022-08-31T00:04:42.734Z,22.40
2022-08-31T00:07:45.665Z,22.40
2022-08-31T00:10:51.012Z,22.40
2022-08-31T00:13:56.920Z,22.30
2022-08-31T00:17:00.443Z,22.40
2022-08-31T00:20:04.027Z,22.40
2022-08-31T00:23:10.067Z,22.30
2022-08-31T00:26:12.996Z,22.30
2022-08-31T00:29:17.371Z,22.30
2022-08-31T00:32:22.373Z,22.30
2022-08-31T00:35:26.777Z,22.30
2022-08-31T00:38:29.749Z,22.30
2022-08-31T00:41:35.502Z,22.30
2022-08-31T00:44:39.823Z,22.30
2022-08-31T00:47:43.017Z,22.30
2022-08-31T00:50:46.021Z,22.30
2022-08-31T00:53:50.816Z,22.20
2022-08-31T00:56:54.953Z,22.10
2022-08-31T01:00:00.666Z,22.10
2022-08-31T01:03:04.984Z,22.10
2022-08-31T01:06:09.648Z,22.10
2022-08-31T01:09:13.596Z,22.10
2022-08-31T01:12:16.709Z,22.00
2022-08-31T01:15:21.652Z,22.10
2022-08-31T01:18:25.778Z,22.10
2022-08-31T01:21:33.350Z,22.00
2022-08-31T01:24:39.522Z,22.10
2022-08-31T01:27:42.883Z,22.00
2022-08-31T01:30:59.940Z,22.00
2022-08-31T01:34:03.385Z,22.00
2022-08-31T01:37:06.633Z,22.10
2022-08-31T01:40:12.776Z,22.00
2022-08-31T01:43:16.110Z,22.00
2022-08-31T01:46:19.058Z,22.00
2022-08-31T01:49:24.321Z,22.00
2022-08-31T01:52:27.815Z,22.10
2022-08-31T01:55:32.333Z,22.10
2022-08-31T01:58:35.259Z,22.10
2022-08-31T02:01:41.690Z,22.00
2022-08-31T02:04:44.706Z,22.00
2022-08-31T02:07:47.933Z,21.90
2022-08-31T02:10:52.828Z,21.90
2022-08-31T02:13:55.846Z,21.90
2022-08-31T02:16:58.711Z,21.80
2022-08-31T02:20:01.672Z,21.90
2022-08-31T02:23:04.876Z,21.90
2022-08-31T02:26:09.996Z,21.80
2022-08-31T02:29:12.966Z,21.90
2022-08-31T02:32:19.582Z,21.80
2022-08-31T02:35:23.050Z,21.80
2022-08-31T02:38:27.372Z,21.80
2022-08-31T02:41:31.626Z,21.70
2022-08-31T02:44:34.593Z,21.70
2022-08-31T02:47:37.462Z,21.70
2022-08-31T02:50:42.191Z,21.70
2022-08-31T02:53:45.544Z,21.70
2022-08-31T02:56:49.785Z,21.70
2022-08-31T02:59:52.748Z,21.70
2022-08-31T03:02:56.524Z,21.70
2022-08-31T03:05:59.466Z,21.70
2022-08-31T03:09:02.618Z,21.70
2022-08-31T03:12:07.255Z,21.70
2022-08-31T03:15:11.583Z,21.70
2022-08-31T03:18:14.495Z,21.70
2022-08-31T03:21:17.823Z,21.70
2022-08-31T03:24:21.211Z,21.60
2022-08-31T03:27:26.805Z,21.60
2022-08-31T03:30:30.020Z,21.60
2022-08-31T03:33:34.465Z,21.60
2022-08-31T03:36:37.396Z,21.50
2022-08-31T03:39:40.320Z,21.50
2022-08-31T03:42:44.750Z,21.50
2022-08-31T03:45:48.497Z,21.50
2022-08-31T03:48:51.418Z,21.40
2022-08-31T03:51:54.349Z,21.40
2022-08-31T03:54:57.250Z,21.40
2022-08-31T03:58:02.062Z,21.40
2022-08-31T04:01:06.934Z,21.40
2022-08-31T04:04:09.865Z,21.40
2022-08-31T04:07:12.829Z,21.40
2022-08-31T04:10:16.321Z,21.40
2022-08-31T04:13:20.638Z,21.40
2022-08-31T04:16:25.184Z,21.40
2022-08-31T04:19:30.249Z,21.40
2022-08-31T04:22:34.454Z,21.40
2022-08-31T04:25:39.296Z,21.40
2022-08-31T04:28:43.523Z,21.40
2022-08-31T04:31:47.078Z,21.40
2022-08-31T04:34:50.149Z,21.40
2022-08-31T04:37:59.183Z,21.40
2022-08-31T04:41:06.204Z,21.40
2022-08-31T04:44:12.274Z,21.40
2022-08-31T04:47:17.325Z,21.40
2022-08-31T04:50:20.423Z,21.40
2022-08-31T04:53:23.583Z,21.30
2022-08-31T04:56:28.638Z,21.30
2022-08-31T04:59:32.880Z,21.30
2022-08-31T05:02:35.822Z,21.30
2022-08-31T05:05:39.797Z,21.30
2022-08-31T05:08:43.231Z,21.20
2022-08-31T05:11:47.148Z,21.20
2022-08-31T05:14:51.386Z,21.30
2022-08-31T05:17:54.270Z,21.30
2022-08-31T05:20:57.241Z,21.30
2022-08-31T05:24:02.397Z,21.30
2022-08-31T05:27:05.761Z,21.30
2022-08-31T05:30:11.440Z,21.30
2022-08-31T05:33:14.385Z,21.30
2022-08-31T05:36:17.754Z,21.30
2022-08-31T05:39:20.930Z,21.30
2022-08-31T05:42:23.837Z,21.30
2022-08-31T05:45:29.153Z,21.30
2022-08-31T05:48:34.093Z,21.30
2022-08-31T05:51:38.697Z,21.30
2022-08-31T05:54:42.110Z,21.30
2022-08-31T05:57:45.130Z,21.30
2022-08-31T06:00:49.695Z,21.30
2022-08-31T06:03:54.154Z,21.40
2022-08-31T06:06:57.855Z,21.40
2022-08-31T06:10:01.370Z,21.30
2022-08-31T06:13:05.351Z,21.40
2022-08-31T06:16:10.075Z,21.40
2022-08-31T06:19:15.221Z,21.40
2022-08-31T06:22:19.161Z,21.50
2022-08-31T06:25:24.496Z,21.50
2022-08-31T06:28:30.145Z,21.50
2022-08-31T06:31:37.429Z,21.50
2022-08-31T06:34:41.005Z,21.50
2022-08-31T06:37:45.194Z,21.40
2022-08-31T06:40:48.192Z,21.50
2022-08-31T06:43:51.462Z,21.50
2022-08-31T06:46:55.681Z,21.50
2022-08-31T06:49:59.002Z,21.50
2022-08-31T06:53:01.946Z,21.50
2022-08-31T06:56:06.302Z,21.50
2022-08-31T06:59:28.209Z,21.50
2022-08-31T07:02:33.276Z,21.60
2022-08-31T07:05:38.911Z,21.60
2022-08-31T07:08:43.262Z,21.60
2022-08-31T07:11:49.790Z,21.60
2022-08-31T07:14:54.705Z,21.50
2022-08-31T07:17:59.597Z,21.50
2022-08-31T07:21:11.699Z,21.50
2022-08-31T07:24:17.946Z,21.60
2022-08-31T07:27:20.821Z,21.60
2022-08-31T07:30:24.342Z,21.60
2022-08-31T07:33:39.008Z,21.60
2022-08-31T07:36:56.225Z,21.60
2022-08-31T07:40:16.566Z,21.60
2022-08-31T07:43:19.628Z,21.60
2022-08-31T07:46:24.030Z,21.60
2022-08-31T07:49:28.681Z,21.60
2022-08-31T07:52:33.354Z,21.70
2022-08-31T07:55:36.267Z,21.70
2022-08-31T07:58:40.190Z,21.60
2022-08-31T08:01:43.689Z,21.60
2022-08-31T08:04:50.967Z,21.60
2022-08-31T08:07:56.542Z,21.60
2022-08-31T08:10:59.469Z,21.70
2022-08-31T08:14:05.274Z,21.70
2022-08-31T08:17:11.292Z,21.70
2022-08-31T08:20:15.625Z,21.70
2022-08-31T08:23:26.831Z,21.70
2022-08-31T08:26:31.875Z,21.70
2022-08-31T08:29:34.905Z,21.70
2022-08-31T08:32:37.897Z,21.80
2022-08-31T08:35:42.391Z,21.80
2022-08-31T08:38:48.264Z,21.80
2022-08-31T08:41:56.837Z,21.80
2022-08-31T08:45:00.238Z,21.80
2022-08-31T08:48:09.335Z,21.90
2022-08-31T08:51:17.246Z,21.90
2022-08-31T08:54:30.819Z,22.00
2022-08-31T08:57:36.566Z,22.00
2022-08-31T09:00:46.707Z,22.10
2022-08-31T09:04:01.340Z,22.10
2022-08-31T09:07:24.053Z,22.20
2022-08-31T09:10:33.667Z,22.20
2022-08-31T09:13:45.925Z,22.20
2022-08-31T09:16:57.279Z,22.30
2022-08-31T09:20:01.279Z,22.30
2022-08-31T09:23:07.994Z,22.40
2022-08-31T09:26:17.718Z,22.40
2022-08-31T09:29:26.628Z,22.50
2022-08-31T09:32:32.042Z,22.60
2022-08-31T09:35:41.435Z,22.60
2022-08-31T09:38:47.238Z,22.60
2022-08-31T09:41:51.288Z,22.60
2022-08-31T09:44:55.606Z,22.60
2022-08-31T09:48:01.305Z,22.70
2022-08-31T09:51:05.465Z,22.70
2022-08-31T09:54:37.786Z,22.70
2022-08-31T09:57:50.355Z,22.80
2022-08-31T10:00:53.337Z,22.70
2022-08-31T10:04:16.096Z,22.80
2022-08-31T10:07:37.708Z,22.80
2022-08-31T10:10:44.931Z,22.90
2022-08-31T10:13:57.151Z,23.00
2022-08-31T10:17:05.726Z,23.00
2022-08-31T10:20:16.497Z,23.10
2022-08-31T10:23:27.257Z,23.10
2022-08-31T10:26:36.946Z,23.10
2022-08-31T10:29:49.291Z,23.10
2022-08-31T10:33:00.694Z,23.10
2022-08-31T10:36:08.170Z,23.10
2022-08-31T10:39:20.148Z,23.10
2022-08-31T10:42:29.943Z,23.00
2022-08-31T10:45:44.347Z,23.10
2022-08-31T10:48:53.180Z,23.00
2022-08-31T10:52:06.139Z,23.00
2022-08-31T10:55:15.384Z,23.00
2022-08-31T10:58:26.708Z,23.00
2022-08-31T11:01:37.986Z,23.00
2022-08-31T11:04:55.817Z,23.00
2022-08-31T11:08:12.263Z,23.00
2022-08-31T11:11:25.021Z,22.90
2022-08-31T11:15:03.180Z,22.90
2022-08-31T11:18:36.185Z,22.90
2022-08-31T11:22:02.857Z,22.90
2022-08-31T11:25:25.134Z,22.80
2022-08-31T11:28:34.296Z,22.80
2022-08-31T11:31:40.651Z,22.80
2022-08-31T11:34:50.707Z,22.80
2022-08-31T11:37:57.166Z,22.70
2022-08-31T11:41:03.844Z,22.60
2022-08-31T11:44:08.816Z,22.50
2022-08-31T11:47:34.599Z,22.50
2022-08-31T11:51:05.101Z,22.40
2022-08-31T11:54:13.721Z,22.40
2022-08-31T11:57:22.051Z,22.30
2022-08-31T12:00:41.676Z,22.10
2022-08-31T12:03:53.223Z,21.90
2022-08-31T12:07:04.095Z,21.80
2022-08-31T12:10:27.792Z,21.70
2022-08-31T12:13:45.875Z,21.40
2022-08-31T12:16:59.924Z,21.40
2022-08-31T12:20:12.267Z,21.40
2022-08-31T12:23:37.729Z,21.40
2022-08-31T12:26:55.843Z,21.40
2022-08-31T12:30:17.796Z,21.40
2022-08-31T12:33:23.902Z,21.40
2022-08-31T12:36:30.453Z,21.40
2022-08-31T12:39:33.856Z,21.30
2022-08-31T12:42:41.889Z,21.30
2022-08-31T12:46:21.200Z,21.20
2022-08-31T12:49:46.797Z,21.20
2022-08-31T12:53:26.390Z,21.10
2022-08-31T12:56:41.347Z,20.90
2022-08-31T13:00:01.326Z,20.80
2022-08-31T13:03:13.279Z,20.80
2022-08-31T13:06:27.559Z,20.80
2022-08-31T13:09:35.572Z,20.70
2022-08-31T13:12:40.675Z,20.70
2022-08-31T13:15:45.091Z,20.70
2022-08-31T13:18:48.292Z,20.70
2022-08-31T13:21:55.111Z,20.60
2022-08-31T13:25:12.217Z,20.70
2022-08-31T13:28:28.891Z,20.70
2022-08-31T13:31:35.836Z,20.80
2022-08-31T13:34:42.141Z,20.80
2022-08-31T13:38:00.259Z,20.80
2022-08-31T13:41:07.449Z,20.80
2022-08-31T13:44:13.927Z,20.80
2022-08-31T13:47:23.457Z,20.80
2022-08-31T13:50:34.117Z,20.80
2022-08-31T13:53:41.319Z,20.80
2022-08-31T13:56:58.950Z,20.80
2022-08-31T14:00:26.682Z,20.80
2022-08-31T14:03:42.144Z,20.90
2022-08-31T14:06:52.267Z,20.90
2022-08-31T14:09:58.503Z,20.90
2022-08-31T14:13:03.995Z,21.00
2022-08-31T14:16:09.284Z,21.00
2022-08-31T14:19:12.862Z,21.00
2022-08-31T14:22:29.998Z,21.00
2022-08-31T14:25:34.370Z,21.00
2022-08-31T14:28:43.985Z,21.00
2022-08-31T14:31:52.409Z,21.00
2022-08-31T14:34:57.738Z,21.00
2022-08-31T14:38:00.747Z,21.00
2022-08-31T14:41:03.692Z,21.00
2022-08-31T14:44:09.290Z,20.90
2022-08-31T14:47:14.767Z,20.90
2022-08-31T14:50:21.425Z,21.00
2022-08-31T14:53:24.357Z,20.90
2022-08-31T14:56:33.147Z,20.90
2022-08-31T14:59:39.818Z,20.90
2022-08-31T15:02:48.295Z,20.90
2022-08-31T15:05:51.357Z,20.90
2022-08-31T15:08:55.201Z,20.90
2022-08-31T15:12:01.487Z,20.90
2022-08-31T15:15:04.766Z,20.90
2022-08-31T15:18:09.871Z,20.80
2022-08-31T15:21:13.331Z,20.80
2022-08-31T15:24:16.968Z,20.80
2022-08-31T15:27:20.735Z,20.80
2022-08-31T15:30:24.564Z,20.80
2022-08-31T15:33:29.497Z,20.80
2022-08-31T15:36:32.737Z,20.80
2022-08-31T15:39:42.778Z,20.80
2022-08-31T15:42:46.132Z,20.80
2022-08-31T15:45:49.027Z,20.70
2022-08-31T15:48:52.326Z,20.80
2022-08-31T15:51:55.364Z,20.80
2022-08-31T15:54:58.431Z,20.70
2022-08-31T15:58:04.402Z,20.60
2022-08-31T16:01:16.323Z,20.60
2022-08-31T16:04:23.766Z,20.60
2022-08-31T16:07:27.010Z,20.60
2022-08-31T16:10:30.954Z,20.60
2022-08-31T16:13:34.081Z,20.50
2022-08-31T16:16:39.185Z,20.60
2022-08-31T16:19:43.845Z,20.50
2022-08-31T16:22:46.985Z,20.50
2022-08-31T16:25:50.067Z,20.60
2022-08-31T16:28:53.360Z,20.50
2022-08-31T16:31:57.477Z,20.50
2022-08-31T16:35:02.085Z,20.50
2022-08-31T16:38:05.438Z,20.40
2022-08-31T16:41:11.067Z,20.40
2022-08-31T16:44:19.882Z,20.40
2022-08-31T16:47:23.339Z,20.40
2022-08-31T16:50:26.746Z,20.40
2022-08-31T16:53:29.981Z,20.40
2022-08-31T16:56:35.330Z,20.40
2022-08-31T16:59:38.404Z,20.40
2022-08-31T17:02:41.429Z,20.40
2022-08-31T17:05:47.113Z,20.40
2022-08-31T17:08:54.406Z,20.40
2022-08-31T17:11:59.821Z,20.40
2022-08-31T17:15:03.740Z,20.30
2022-08-31T17:18:06.821Z,20.30
2022-08-31T17:21:17.496Z,20.30
2022-08-31T17:24:23.596Z,20.30
2022-08-31T17:27:27.733Z,20.30
2022-08-31T17:30:30.956Z,20.20
2022-08-31T17:33:33.990Z,20.20
2022-08-31T17:36:40.959Z,20.20
2022-08-31T17:39:45.795Z,20.20
2022-08-31T17:42:49.844Z,20.20
2022-08-31T17:45:52.947Z,20.20
2022-08-31T17:48:58.610Z,20.20
2022-08-31T17:52:06.669Z,20.10
2022-08-31T17:55:10.044Z,20.10
2022-08-31T17:58:13.075Z,20.10
2022-08-31T18:01:23.198Z,20.10
2022-08-31T18:04:27.792Z,20.10
2022-08-31T18:07:32.264Z,20.00
2022-08-31T18:10:35.770Z,20.00
2022-08-31T18:13:38.886Z,20.00
2022-08-31T18:16:42.053Z,19.90
2022-08-31T18:19:45.820Z,19.90
2022-08-31T18:22:52.357Z,19.90
2022-08-31T18:25:55.700Z,19.80
2022-08-31T18:28:59.787Z,19.90
2022-08-31T18:32:04.428Z,19.80
2022-08-31T18:35:14.284Z,19.90
2022-08-31T18:38:19.014Z,19.90
2022-08-31T18:41:40.733Z,19.90
2022-08-31T18:45:01.207Z,19.80
2022-08-31T18:48:24.317Z,19.80
2022-08-31T18:51:27.916Z,19.80
2022-08-31T18:54:33.048Z,19.80
2022-08-31T18:57:42.773Z,19.80
2022-08-31T19:00:57.784Z,19.80
2022-08-31T19:04:02.627Z,19.80
2022-08-31T19:07:07.442Z,19.80
2022-08-31T19:10:14.382Z,19.80
2022-08-31T19:13:17.428Z,19.70
2022-08-31T19:16:23.595Z,19.70
2022-08-31T19:19:27.252Z,19.70
2022-08-31T19:22:30.356Z,19.70
2022-08-31T19:25:35.945Z,19.70
2022-08-31T19:28:38.968Z,19.60
2022-08-31T19:31:45.962Z,19.70
2022-08-31T19:34:49.724Z,19.70
2022-08-31T19:37:52.917Z,19.60
2022-08-31T19:40:59.649Z,19.70
2022-08-31T19:44:08.197Z,19.70
2022-08-31T19:47:24.374Z,19.70
2022-08-31T19:50:27.979Z,19.60
2022-08-31T19:53:31.023Z,19.60
2022-08-31T19:56:37.489Z,19.60
2022-08-31T19:59:40.794Z,19.60
2022-08-31T20:02:44.756Z,19.60
2022-08-31T20:05:48.473Z,19.60
2022-08-31T20:08:51.992Z,19.50
2022-08-31T20:12:00.012Z,19.50
2022-08-31T20:15:03.523Z,19.50
2022-08-31T20:18:07.647Z,19.40
2022-08-31T20:21:15.404Z,19.40
2022-08-31T20:24:18.542Z,19.40
2022-08-31T20:27:22.948Z,19.50
2022-08-31T20:30:26.231Z,19.40
2022-08-31T20:33:29.416Z,19.40
2022-08-31T20:36:33.501Z,19.50
2022-08-31T20:39:37.392Z,19.50
2022-08-31T20:42:42.554Z,19.50
2022-08-31T20:45:45.501Z,19.50
2022-08-31T20:49:06.033Z,19.50
2022-08-31T20:52:09.947Z,19.50
2022-08-31T20:55:14.170Z,19.40
2022-08-31T20:58:18.450Z,19.40
2022-08-31T21:01:21.600Z,19.30
2022-08-31T21:04:24.598Z,19.30
2022-08-31T21:07:27.504Z,19.30
2022-08-31T21:10:37.753Z,19.40
2022-08-31T21:13:44.495Z,19.40
2022-08-31T21:16:48.494Z,19.40
2022-08-31T21:19:52.953Z,19.40
2022-08-31T21:22:55.910Z,19.40
2022-08-31T21:25:59.574Z,19.40
2022-08-31T21:29:04.370Z,19.40
2022-08-31T21:32:10.579Z,19.30
2022-08-31T21:35:15.140Z,19.30
2022-08-31T21:38:18.276Z,19.20
2022-08-31T21:41:22.481Z,19.20
2022-08-31T21:44:27.030Z,19.20
2022-08-31T21:47:30.084Z,19.20
2022-08-31T21:50:32.958Z,19.10
2022-08-31T21:53:35.853Z,19.10
2022-08-31T21:56:40.638Z,19.10
2022-08-31T21:59:44.918Z,19.10
2022-08-31T22:02:48.095Z,19.10
2022-08-31T22:05:51.004Z,19.10
2022-08-31T22:08:57.498Z,19.00
2022-08-31T22:12:07.283Z,19.00
2022-08-31T22:15:16.653Z,19.00
2022-08-31T22:18:59.567Z,19.10
2022-08-31T22:21:44.695Z,19.00
2022-08-31T22:24:47.638Z,19.10
2022-08-31T22:27:51.332Z,19.10
2022-08-31T22:30:55.841Z,19.10
2022-08-31T22:33:58.879Z,19.10
2022-08-31T22:37:02.041Z,19.10
2022-08-31T22:40:05.765Z,19.10
2022-08-31T22:43:09.457Z,19.10
2022-08-31T22:46:16.365Z,19.20
2022-08-31T22:49:19.637Z,19.10
2022-08-31T22:52:22.637Z,19.10
2022-08-31T22:55:25.624Z,19.10
2022-08-31T22:58:28.556Z,18.90
2022-08-31T23:01:35.744Z,18.80
2022-08-31T23:04:44.056Z,18.90
2022-08-31T23:07:47.726Z,18.90
2022-08-31T23:10:50.819Z,18.90
2022-08-31T23:13:56.532Z,18.90
2022-08-31T23:17:02.773Z,18.90
2022-08-31T23:20:07.264Z,19.00
2022-08-31T23:23:11.070Z,19.00
2022-08-31T23:26:14.047Z,19.00
2022-08-31T23:29:19.188Z,19.00
2022-08-31T23:32:27.734Z,19.00
2022-08-31T23:35:30.622Z,19.00
2022-08-31T23:38:34.321Z,19.00
2022-08-31T23:41:37.769Z,19.00
2022-08-31T23:44:43.755Z,19.00
2022-08-31T23:47:48.161Z,19.00
2022-08-31T23:50:51.957Z,19.00
2022-08-31T23:53:55.732Z,19.00
2022-08-31T23:56:58.832Z,19.00
